createdAt,value
2023-03-11T00:00:48.629Z,3.98
2023-03-11T00:03:22.068Z,4.60
2023-03-11T00:05:52.102Z,4.33
2023-03-11T00:08:25.172Z,4.85
2023-03-11T00:11:00.099Z,5.08
2023-03-11T00:13:29.586Z,3.62
2023-03-11T00:15:57.369Z,3.90
2023-03-11T00:18:30.308Z,3.77
2023-03-11T00:20:59.604Z,3.62
2023-03-11T00:23:28.358Z,3.67
2023-03-11T00:25:56.365Z,3.22
2023-03-11T00:28:26.115Z,3.50
2023-03-11T00:30:54.026Z,3.40
2023-03-11T00:33:22.833Z,3.65
2023-03-11T00:35:51.229Z,3.70
2023-03-11T00:38:21.213Z,2.83
2023-03-11T00:40:49.693Z,3.10
2023-03-11T00:43:17.557Z,2.98
2023-03-11T00:45:45.500Z,3.45
2023-03-11T00:48:14.508Z,3.35
2023-03-11T00:50:42.613Z,4.85
2023-03-11T00:53:11.622Z,6.10
2023-03-11T00:56:02.179Z,7.58
2023-03-11T00:58:32.179Z,4.70
2023-03-11T01:01:00.010Z,4.05
2023-03-11T01:03:27.939Z,3.50
2023-03-11T01:05:55.690Z,4.50
2023-03-11T01:08:26.538Z,5.28
2023-03-11T01:10:55.280Z,4.10
2023-03-11T01:13:23.145Z,4.00
2023-03-11T01:15:51.972Z,4.20
2023-03-11T01:18:21.693Z,3.60
2023-03-11T01:20:50.174Z,3.35
2023-03-11T01:23:19.424Z,4.10
2023-03-11T01:25:48.404Z,3.52
2023-03-11T01:28:16.070Z,3.87
2023-03-11T01:30:44.926Z,4.10
2023-03-11T01:33:19.308Z,3.80
2023-03-11T01:35:48.839Z,3.45
2023-03-11T01:38:16.812Z,3.02
2023-03-11T01:40:48.689Z,2.83
2023-03-11T01:43:45.875Z,2.90
2023-03-11T01:46:29.538Z,3.33
2023-03-11T01:49:01.166Z,3.37
2023-03-11T01:51:41.072Z,3.12
2023-03-11T01:54:14.599Z,3.30
2023-03-11T01:56:44.317Z,3.45
2023-03-11T01:59:15.900Z,3.55
2023-03-11T02:02:04.299Z,3.10
2023-03-11T02:04:34.743Z,3.47
2023-03-11T02:07:04.513Z,3.70
2023-03-11T02:09:32.181Z,3.75
2023-03-11T02:12:00.847Z,3.70
2023-03-11T02:14:30.709Z,3.40
2023-03-11T02:16:59.823Z,2.92
2023-03-11T02:20:05.017Z,2.70
2023-03-11T02:22:33.757Z,2.90
2023-03-11T02:25:25.405Z,3.40
2023-03-11T02:27:55.330Z,3.77
2023-03-11T02:30:27.142Z,3.55
2023-03-11T02:32:56.320Z,3.45
2023-03-11T02:35:24.541Z,3.58
2023-03-11T02:37:54.594Z,3.52
2023-03-11T02:40:30.509Z,3.72
2023-03-11T02:43:06.137Z,3.87
2023-03-11T02:45:36.243Z,3.90
2023-03-11T02:48:04.583Z,4.78
2023-03-11T02:50:33.981Z,4.25
2023-03-11T02:53:01.763Z,4.25
2023-03-11T02:55:29.523Z,5.03
2023-03-11T02:57:57.592Z,4.58
2023-03-11T03:00:25.892Z,3.85
2023-03-11T03:02:55.334Z,3.60
2023-03-11T03:05:23.765Z,3.47
2023-03-11T03:07:51.789Z,2.70
2023-03-11T03:10:21.830Z,3.25
2023-03-11T03:12:50.008Z,3.40
2023-03-11T03:15:18.221Z,3.10
2023-03-11T03:17:46.753Z,3.35
2023-03-11T03:20:14.847Z,3.33
2023-03-11T03:22:44.314Z,3.67
2023-03-11T03:25:13.027Z,3.47
2023-03-11T03:27:44.232Z,3.75
2023-03-11T03:30:13.081Z,3.62
2023-03-11T03:32:41.395Z,4.40
2023-03-11T03:35:11.038Z,4.37
2023-03-11T03:37:40.843Z,4.17
2023-03-11T03:40:10.913Z,3.47
2023-03-11T03:42:39.184Z,3.90
2023-03-11T03:45:09.664Z,3.40
2023-03-11T03:47:37.505Z,3.60
2023-03-11T03:50:09.867Z,3.65
2023-03-11T03:52:39.216Z,4.10
2023-03-11T03:55:08.162Z,3.72
2023-03-11T03:57:36.075Z,4.28
2023-03-11T04:00:07.618Z,4.00
2023-03-11T04:02:37.379Z,3.65
2023-03-11T04:05:07.614Z,4.17
2023-03-11T04:07:36.208Z,4.08
2023-03-11T04:10:06.440Z,4.40
2023-03-11T04:12:34.430Z,5.55
2023-03-11T04:15:02.947Z,6.53
2023-03-11T04:17:30.770Z,6.28
2023-03-11T04:19:58.984Z,6.10
2023-03-11T04:22:26.827Z,5.10
2023-03-11T04:24:55.062Z,4.50
2023-03-11T04:27:22.702Z,3.83
2023-03-11T04:29:51.032Z,3.65
2023-03-11T04:32:19.174Z,3.90
2023-03-11T04:34:47.367Z,4.72
2023-03-11T04:37:15.069Z,4.17
2023-03-11T04:39:42.707Z,3.55
2023-03-11T04:42:12.322Z,3.27
2023-03-11T04:44:39.786Z,4.20
2023-03-11T04:47:07.554Z,3.92
2023-03-11T04:49:35.810Z,4.97
2023-03-11T04:52:04.628Z,4.10
2023-03-11T04:54:32.313Z,4.90
2023-03-11T04:57:00.202Z,5.28
2023-03-11T04:59:27.925Z,5.25
2023-03-11T05:01:55.706Z,6.28
2023-03-11T05:04:23.641Z,6.83
2023-03-11T05:06:51.574Z,7.42
2023-03-11T05:09:19.868Z,8.15
2023-03-11T05:11:47.991Z,10.10
2023-03-11T05:14:17.381Z,10.75
2023-03-11T05:16:45.312Z,10.60
2023-03-11T05:19:17.596Z,10.60
2023-03-11T05:21:45.237Z,22.30
2023-03-11T05:24:12.863Z,23.47
2023-03-11T05:26:40.842Z,23.52
2023-03-11T05:29:08.968Z,21.33
2023-03-11T05:31:37.038Z,10.70
2023-03-11T05:34:05.193Z,8.40
2023-03-11T05:36:33.128Z,9.68
2023-03-11T05:39:01.337Z,8.50
2023-03-11T05:41:29.458Z,8.43
2023-03-11T05:43:56.950Z,8.05
2023-03-11T05:46:27.651Z,9.28
2023-03-11T05:48:55.855Z,10.68
2023-03-11T05:51:23.583Z,14.30
2023-03-11T05:53:51.614Z,19.85
2023-03-11T05:56:23.045Z,17.92
2023-03-11T05:58:51.144Z,8.50
2023-03-11T06:01:20.323Z,9.58
2023-03-11T06:03:48.428Z,14.60
2023-03-11T06:06:17.266Z,12.13
2023-03-11T06:08:46.843Z,9.05
2023-03-11T06:11:14.892Z,9.10
2023-03-11T06:13:43.153Z,9.10
2023-03-11T06:16:11.732Z,11.12
2023-03-11T06:18:39.442Z,14.10
2023-03-11T06:21:08.072Z,17.87
2023-03-11T06:23:35.749Z,22.77
2023-03-11T06:26:05.676Z,31.70
2023-03-11T06:28:35.325Z,26.57
2023-03-11T06:31:14.879Z,19.98
2023-03-11T06:33:43.560Z,15.32
2023-03-11T06:36:14.136Z,17.32
2023-03-11T06:38:42.621Z,17.95
2023-03-11T06:41:10.440Z,16.37
2023-03-11T06:43:38.541Z,18.17
2023-03-11T06:46:13.369Z,22.50
2023-03-11T06:48:41.555Z,15.10
2023-03-11T06:51:10.840Z,11.95
2023-03-11T06:53:39.158Z,18.52
2023-03-11T06:56:13.441Z,18.80
2023-03-11T06:58:49.462Z,17.35
2023-03-11T07:01:24.638Z,21.02
2023-03-11T07:03:53.632Z,26.62
2023-03-11T07:06:26.038Z,19.98
2023-03-11T07:11:27.513Z,3.27
2023-03-11T07:13:57.100Z,2.12
2023-03-11T07:16:30.026Z,2.15
2023-03-11T07:19:02.740Z,1.92
2023-03-11T07:21:32.323Z,1.45
2023-03-11T07:24:01.822Z,1.20
2023-03-11T07:26:31.682Z,1.70
2023-03-11T07:29:00.405Z,1.80
2023-03-11T07:31:31.285Z,1.90
2023-03-11T07:34:01.856Z,2.10
2023-03-11T07:36:30.284Z,2.25
2023-03-11T07:39:04.323Z,2.40
2023-03-11T07:41:34.666Z,2.58
2023-03-11T07:44:04.139Z,2.30
2023-03-11T07:46:32.299Z,2.08
2023-03-11T07:49:03.114Z,2.20
2023-03-11T07:51:33.600Z,2.40
2023-03-11T07:54:02.168Z,2.83
2023-03-11T07:56:33.535Z,3.02
2023-03-11T07:59:03.971Z,2.62
2023-03-11T08:01:35.200Z,3.10
2023-03-11T08:04:06.571Z,2.77
2023-03-11T08:06:36.799Z,2.65
2023-03-11T08:09:08.361Z,3.27
2023-03-11T08:11:36.666Z,7.95
2023-03-11T08:14:05.565Z,7.40
2023-03-11T08:16:33.484Z,10.85
2023-03-11T08:19:01.113Z,6.15
2023-03-11T08:21:31.530Z,10.85
2023-03-11T08:24:01.319Z,8.13
2023-03-11T08:26:29.336Z,12.60
2023-03-11T08:28:58.454Z,14.05
2023-03-11T08:31:30.393Z,17.98
2023-03-11T08:34:02.995Z,14.53
2023-03-11T08:36:31.811Z,10.75
2023-03-11T08:39:00.284Z,7.87
2023-03-11T08:41:28.596Z,6.37
2023-03-11T08:43:56.277Z,5.22
2023-03-11T08:46:38.105Z,3.67
2023-03-11T08:49:06.726Z,6.33
2023-03-11T08:51:35.271Z,6.92
2023-03-11T08:54:03.796Z,7.70
2023-03-11T08:56:31.766Z,4.30
2023-03-11T08:58:59.573Z,2.50
2023-03-11T09:01:28.979Z,2.98
2023-03-11T09:03:56.976Z,2.30
2023-03-11T09:06:25.077Z,2.17
2023-03-11T09:08:52.886Z,2.52
2023-03-11T09:11:22.106Z,2.42
2023-03-11T09:13:50.217Z,2.45
2023-03-11T09:16:21.793Z,2.62
2023-03-11T09:18:49.750Z,2.62
2023-03-11T09:21:17.491Z,1.77
2023-03-11T09:23:45.683Z,2.37
2023-03-11T09:26:13.609Z,7.17
2023-03-11T09:28:42.145Z,7.97
2023-03-11T09:31:10.010Z,8.20
2023-03-11T09:33:39.920Z,7.70
2023-03-11T09:36:10.688Z,7.15
2023-03-11T09:38:38.351Z,3.70
2023-03-11T09:41:26.725Z,3.15
2023-03-11T09:44:22.357Z,2.85
2023-03-11T09:47:27.484Z,2.25
2023-03-11T09:50:06.729Z,1.70
2023-03-11T09:52:58.306Z,1.57
2023-03-11T09:55:52.082Z,1.67
2023-03-11T09:58:54.829Z,1.77
2023-03-11T10:01:42.340Z,1.72
2023-03-11T10:04:26.183Z,2.05
2023-03-11T10:09:39.726Z,1.70
2023-03-11T10:12:45.378Z,1.77
2023-03-11T10:15:40.205Z,2.17
2023-03-11T10:18:28.430Z,2.00
2023-03-11T10:21:11.015Z,1.80
2023-03-11T10:23:59.268Z,1.80
2023-03-11T10:26:44.277Z,2.12
2023-03-11T10:29:32.171Z,1.87
2023-03-11T10:32:07.424Z,1.87
2023-03-11T10:34:43.175Z,1.80
2023-03-11T10:37:47.931Z,2.15
2023-03-11T10:40:25.601Z,2.00
2023-03-11T10:42:57.125Z,1.80
2023-03-11T10:45:27.156Z,2.92
2023-03-11T10:47:57.692Z,1.72
2023-03-11T10:50:25.288Z,2.10
2023-03-11T10:53:07.353Z,2.10
2023-03-11T10:55:35.627Z,1.60
2023-03-11T10:58:13.130Z,1.10
2023-03-11T11:00:41.025Z,0.85
2023-03-11T11:03:20.307Z,0.82
2023-03-11T11:05:58.357Z,0.90
2023-03-11T11:08:26.208Z,0.80
2023-03-11T11:11:00.406Z,0.80
2023-03-11T11:13:31.860Z,0.60
2023-03-11T11:16:20.456Z,0.93
2023-03-11T11:18:59.771Z,0.40
2023-03-11T11:21:51.870Z,0.40
2023-03-11T11:24:26.734Z,0.80
2023-03-11T11:27:22.901Z,0.60
2023-03-11T11:30:16.452Z,0.68
2023-03-11T11:32:44.052Z,0.90
2023-03-11T11:35:16.003Z,1.05
2023-03-11T11:37:52.944Z,1.30
2023-03-11T11:40:30.607Z,1.15
2023-03-11T11:43:17.383Z,0.85
2023-03-11T11:45:49.280Z,1.37
2023-03-11T11:49:04.138Z,1.77
2023-03-11T11:51:37.090Z,1.22
2023-03-11T11:54:27.003Z,2.02
2023-03-11T11:56:56.401Z,1.30
2023-03-11T11:59:25.391Z,0.98
2023-03-11T12:02:19.791Z,1.00
2023-03-11T12:05:21.941Z,1.12
2023-03-11T12:08:23.915Z,1.62
2023-03-11T12:11:01.452Z,2.50
2023-03-11T12:13:46.790Z,1.25
2023-03-11T12:16:29.832Z,1.90
2023-03-11T12:19:12.065Z,1.93
2023-03-11T12:21:57.213Z,3.35
2023-03-11T12:24:59.372Z,1.05
2023-03-11T12:27:54.218Z,1.82
2023-03-11T12:30:26.893Z,1.17
2023-03-11T12:33:03.080Z,3.20
2023-03-11T12:35:36.484Z,3.90
2023-03-11T12:38:27.163Z,1.42
2023-03-11T12:41:09.501Z,3.95
2023-03-11T12:43:42.481Z,2.30
2023-03-11T12:46:13.926Z,2.50
2023-03-11T12:48:51.728Z,3.05
2023-03-11T12:51:39.179Z,3.42
2023-03-11T12:54:35.715Z,4.28
2023-03-11T12:57:24.017Z,3.47
2023-03-11T13:00:24.439Z,4.03
2023-03-11T13:03:35.889Z,4.42
2023-03-11T13:06:25.983Z,2.22
2023-03-11T13:09:00.417Z,2.90
2023-03-11T13:11:39.330Z,3.12
2023-03-11T13:14:30.570Z,3.05
2023-03-11T13:17:25.969Z,3.87
2023-03-11T13:19:56.433Z,2.85
2023-03-11T13:22:58.723Z,9.80
2023-03-11T13:25:43.381Z,6.40
2023-03-11T13:28:57.213Z,4.47
2023-03-11T13:32:02.081Z,2.37
2023-03-11T13:34:56.532Z,1.32
2023-03-11T13:37:55.509Z,1.45
2023-03-11T13:40:39.256Z,2.98
2023-03-11T13:43:25.573Z,2.08
2023-03-11T13:46:35.093Z,2.58
2023-03-11T13:49:32.872Z,2.20
2023-03-11T13:52:02.658Z,1.82
2023-03-11T13:54:41.558Z,1.80
2023-03-11T13:57:34.391Z,1.40
2023-03-11T14:00:17.154Z,2.37
2023-03-11T14:02:50.425Z,1.82
2023-03-11T14:05:40.227Z,1.77
2023-03-11T14:08:27.595Z,1.70
2023-03-11T14:10:58.858Z,1.40
2023-03-11T14:13:33.135Z,2.00
2023-03-11T14:16:32.625Z,1.37
2023-03-11T14:19:15.770Z,2.20
2023-03-11T14:21:47.679Z,2.25
2023-03-11T14:24:28.469Z,3.58
2023-03-11T14:27:00.184Z,2.33
2023-03-11T14:29:39.807Z,4.42
2023-03-11T14:35:34.137Z,18.75
2023-03-11T14:40:32.343Z,3.40
2023-03-11T14:43:06.748Z,2.00
2023-03-11T14:45:38.407Z,2.30
2023-03-11T14:48:23.962Z,3.15
2023-03-11T14:50:53.393Z,1.60
2023-03-11T14:53:25.716Z,2.60
2023-03-11T14:56:07.119Z,2.90
2023-03-11T14:58:39.854Z,1.37
2023-03-11T15:01:21.420Z,1.50
2023-03-11T15:04:12.362Z,3.00
2023-03-11T15:06:43.691Z,2.40
2023-03-11T15:09:15.415Z,1.85
2023-03-11T15:11:58.715Z,2.70
2023-03-11T15:14:40.593Z,2.10
2023-03-11T15:17:37.067Z,2.22
2023-03-11T15:19:56.293Z,2.00
2023-03-11T15:22:38.129Z,2.62
2023-03-11T15:25:18.400Z,4.28
2023-03-11T15:27:46.350Z,2.75
2023-03-11T15:30:28.251Z,5.05
2023-03-11T15:32:57.534Z,6.17
2023-03-11T15:35:30.926Z,2.40
2023-03-11T15:40:57.176Z,2.02
2023-03-11T15:43:30.193Z,3.25
2023-03-11T15:46:01.147Z,1.57
2023-03-11T15:48:30.668Z,1.90
2023-03-11T15:51:00.115Z,2.98
2023-03-11T15:53:30.169Z,2.40
2023-03-11T15:56:07.298Z,1.87
2023-03-11T15:58:32.339Z,1.37
2023-03-11T16:01:00.069Z,1.75
2023-03-11T16:03:30.186Z,2.10
2023-03-11T16:05:57.250Z,1.98
2023-03-11T16:08:24.950Z,1.57
2023-03-11T16:10:52.204Z,1.42
2023-03-11T16:13:19.688Z,1.40
2023-03-11T16:15:47.349Z,2.60
2023-03-11T16:18:15.889Z,2.47
2023-03-11T16:20:50.136Z,2.70
2023-03-11T16:23:25.265Z,2.90
2023-03-11T16:26:02.458Z,1.42
2023-03-11T16:28:30.327Z,1.17
2023-03-11T16:30:58.137Z,3.35
2023-03-11T16:33:25.733Z,1.62
2023-03-11T16:35:53.702Z,1.30
2023-03-11T16:38:22.781Z,1.40
2023-03-11T16:41:00.453Z,1.30
2023-03-11T16:43:30.163Z,2.00
2023-03-11T16:45:57.657Z,2.05
2023-03-11T16:48:25.693Z,2.10
2023-03-11T16:50:53.193Z,2.67
2023-03-11T16:53:21.500Z,2.08
2023-03-11T16:55:49.071Z,1.92
2023-03-11T16:58:16.916Z,1.82
2023-03-11T17:00:45.645Z,2.20
2023-03-11T17:03:15.983Z,1.72
2023-03-11T17:05:43.835Z,2.92
2023-03-11T17:08:12.390Z,2.10
2023-03-11T17:10:43.590Z,3.50
2023-03-11T17:13:15.499Z,2.72
2023-03-11T17:15:44.104Z,1.67
2023-03-11T17:18:13.228Z,2.20
2023-03-11T17:20:43.099Z,1.92
2023-03-11T17:23:11.054Z,2.90
2023-03-11T17:25:41.812Z,2.98
2023-03-11T17:28:09.608Z,2.42
2023-03-11T17:30:43.223Z,1.90
2023-03-11T17:33:11.182Z,2.42
2023-03-11T17:35:40.267Z,1.60
2023-03-11T17:38:08.074Z,1.70
2023-03-11T17:40:37.197Z,4.33
2023-03-11T17:43:05.175Z,2.15
2023-03-11T17:45:33.035Z,1.60
2023-03-11T17:48:00.490Z,1.92
2023-03-11T17:50:28.185Z,2.00
2023-03-11T17:52:56.122Z,1.60
2023-03-11T17:55:23.825Z,2.47
2023-03-11T17:57:52.478Z,1.90
2023-03-11T18:00:22.005Z,2.85
2023-03-11T18:02:50.924Z,1.82
2023-03-11T18:05:20.418Z,1.62
2023-03-11T18:07:48.273Z,1.80
2023-03-11T18:10:16.494Z,1.42
2023-03-11T18:12:45.867Z,0.90
2023-03-11T18:15:16.596Z,1.55
2023-03-11T18:17:48.239Z,1.70
2023-03-11T18:20:17.510Z,2.70
2023-03-11T18:22:46.614Z,2.92
2023-03-11T18:25:14.743Z,2.20
2023-03-11T18:27:42.908Z,1.80
2023-03-11T18:30:13.810Z,1.67
2023-03-11T18:32:42.020Z,5.58
2023-03-11T18:35:09.975Z,9.43
2023-03-11T18:37:37.660Z,7.42
2023-03-11T18:40:06.882Z,11.45
2023-03-11T18:42:34.748Z,5.25
2023-03-11T18:45:02.742Z,4.75
2023-03-11T18:47:35.611Z,4.80
2023-03-11T18:50:04.358Z,9.85
2023-03-11T18:52:32.006Z,9.00
2023-03-11T18:54:59.543Z,9.90
2023-03-11T18:57:27.363Z,20.80
2023-03-11T18:59:55.127Z,7.37
2023-03-11T19:02:22.953Z,24.45
2023-03-11T19:04:50.440Z,10.58
2023-03-11T19:07:17.874Z,12.43
2023-03-11T19:09:47.878Z,16.52
2023-03-11T19:12:15.360Z,10.68
2023-03-11T19:14:42.922Z,6.05
2023-03-11T19:17:12.373Z,3.70
2023-03-11T19:19:40.151Z,4.55
2023-03-11T19:22:07.696Z,4.30
2023-03-11T19:24:35.350Z,4.15
2023-03-11T19:27:03.018Z,5.10
2023-03-11T19:29:30.760Z,5.15
2023-03-11T19:31:58.595Z,5.30
2023-03-11T19:34:26.656Z,4.85
2023-03-11T19:36:54.214Z,4.20
2023-03-11T19:39:21.851Z,9.65
2023-03-11T19:41:49.806Z,6.87
2023-03-11T19:44:17.361Z,9.65
2023-03-11T19:46:45.251Z,6.70
2023-03-11T19:49:13.022Z,5.67
2023-03-11T19:51:49.696Z,5.22
2023-03-11T19:54:14.425Z,10.15
2023-03-11T19:56:42.097Z,10.08
2023-03-11T19:59:09.938Z,13.70
2023-03-11T20:01:37.905Z,24.57
2023-03-11T20:04:05.534Z,9.00
2023-03-11T20:06:33.554Z,18.92
2023-03-11T20:09:01.012Z,9.33
2023-03-11T20:11:28.840Z,24.47
2023-03-11T20:13:56.644Z,15.43
2023-03-11T20:16:24.160Z,6.95
2023-03-11T20:18:52.472Z,8.28
2023-03-11T20:21:20.149Z,6.33
2023-03-11T20:23:48.556Z,7.90
2023-03-11T20:26:18.768Z,12.33
2023-03-11T20:28:47.024Z,11.30
2023-03-11T20:31:20.879Z,11.93
2023-03-11T20:33:50.260Z,19.20
2023-03-11T20:36:25.686Z,15.10
2023-03-11T20:38:55.675Z,15.13
2023-03-11T20:41:25.382Z,13.55
2023-03-11T20:43:55.514Z,17.95
2023-03-11T20:46:23.609Z,16.07
2023-03-11T20:48:51.384Z,29.75
2023-03-11T20:51:22.576Z,23.50
2023-03-11T20:53:50.612Z,30.77
2023-03-11T20:56:22.143Z,7.67
2023-03-11T20:58:51.682Z,21.95
2023-03-11T21:01:29.174Z,14.68
2023-03-11T21:04:00.450Z,15.98
2023-03-11T21:06:32.998Z,26.85
2023-03-11T21:09:05.541Z,22.02
2023-03-11T21:11:33.602Z,9.58
2023-03-11T21:14:01.203Z,3.10
2023-03-11T21:16:29.175Z,3.60
2023-03-11T21:18:57.803Z,2.25
2023-03-11T21:21:25.886Z,2.05
2023-03-11T21:23:54.269Z,2.12
2023-03-11T21:26:21.997Z,1.40
2023-03-11T21:28:49.805Z,1.90
2023-03-11T21:31:20.682Z,2.30
2023-03-11T21:33:54.636Z,2.10
2023-03-11T21:36:22.639Z,2.25
2023-03-11T21:38:50.888Z,1.82
2023-03-11T21:41:24.561Z,1.82
2023-03-11T21:43:54.542Z,1.72
2023-03-11T21:46:27.213Z,1.72
2023-03-11T21:48:55.444Z,1.50
2023-03-11T21:51:23.597Z,5.35
2023-03-11T21:53:51.475Z,3.40
2023-03-11T21:56:19.417Z,2.22
2023-03-11T21:58:47.299Z,1.98
2023-03-11T22:01:15.090Z,2.00
2023-03-11T22:03:43.437Z,1.95
2023-03-11T22:06:13.086Z,1.82
2023-03-11T22:08:42.068Z,1.50
2023-03-11T22:11:16.613Z,1.30
2023-03-11T22:13:47.246Z,1.70
2023-03-11T22:16:15.095Z,1.72
2023-03-11T22:18:43.383Z,1.52
2023-03-11T22:21:11.277Z,1.50
2023-03-11T22:23:39.336Z,1.55
2023-03-11T22:26:07.455Z,2.20
2023-03-11T22:28:35.210Z,1.98
2023-03-11T22:31:12.893Z,1.27
2023-03-11T22:33:40.623Z,1.67
2023-03-11T22:36:09.184Z,1.95
2023-03-11T22:38:37.791Z,1.70
2023-03-11T22:41:07.515Z,1.40
2023-03-11T22:43:35.778Z,1.80
2023-03-11T22:46:05.374Z,1.52
2023-03-11T22:48:34.178Z,1.67
2023-03-11T22:51:01.844Z,1.70
2023-03-11T22:53:29.733Z,1.80
2023-03-11T22:55:57.206Z,1.25
2023-03-11T22:58:24.791Z,2.10
2023-03-11T23:00:52.493Z,1.85
2023-03-11T23:03:20.413Z,1.75
2023-03-11T23:05:48.384Z,1.70
2023-03-11T23:08:16.439Z,2.10
2023-03-11T23:10:46.858Z,1.82
2023-03-11T23:13:15.378Z,1.80
2023-03-11T23:15:46.410Z,1.37
2023-03-11T23:18:16.145Z,1.35
2023-03-11T23:20:44.518Z,1.80
2023-03-11T23:23:13.690Z,1.40
2023-03-11T23:25:41.987Z,1.77
2023-03-11T23:28:09.776Z,1.80
2023-03-11T23:30:40.052Z,2.17
2023-03-11T23:33:08.163Z,1.50
2023-03-11T23:35:44.095Z,1.45
2023-03-11T23:38:11.863Z,1.70
2023-03-11T23:40:41.124Z,1.80
2023-03-11T23:43:08.971Z,1.67
2023-03-11T23:45:36.845Z,1.50
2023-03-11T23:48:04.537Z,1.42
2023-03-11T23:50:32.153Z,1.22
2023-03-11T23:53:00.050Z,1.50
2023-03-11T23:55:28.034Z,1.60
2023-03-11T23:57:55.439Z,1.40
